createdAt,value
2023-04-17T00:00:34.769Z,100963.38
2023-04-17T00:03:18.867Z,100961.69
2023-04-17T00:05:46.658Z,100956.44
2023-04-17T00:08:13.900Z,100957.41
2023-04-17T00:10:41.311Z,100958.25
2023-04-17T00:13:08.564Z,100965.34
2023-04-17T00:15:35.958Z,100959.22
2023-04-17T00:18:04.363Z,100956.66
2023-04-17T00:20:31.731Z,100956.66
2023-04-17T00:22:59.141Z,100954.91
2023-04-17T00:25:26.576Z,100964.66
2023-04-17T00:27:53.625Z,100961.13
2023-04-17T00:30:21.105Z,100970.00
2023-04-17T00:32:48.534Z,100972.69
2023-04-17T00:35:15.988Z,100974.47
2023-04-17T00:37:43.273Z,100981.59
2023-04-17T00:40:11.401Z,100984.28
2023-04-17T00:42:38.358Z,100987.84
2023-04-17T00:45:06.342Z,100991.47
2023-04-17T00:47:33.557Z,100988.81
2023-04-17T00:50:00.930Z,100988.00
2023-04-17T00:52:32.915Z,100987.19
2023-04-17T00:55:00.874Z,100994.28
2023-04-17T00:57:28.238Z,100988.19
2023-04-17T00:59:57.605Z,100999.69
2023-04-17T01:02:26.271Z,101000.56
2023-04-17T01:04:53.768Z,100997.13
2023-04-17T01:07:21.214Z,100991.94
2023-04-17T01:09:48.612Z,100989.22
2023-04-17T01:12:17.389Z,100996.34
2023-04-17T01:14:45.020Z,100993.69
2023-04-17T01:17:14.395Z,100992.88
2023-04-17T01:19:42.325Z,101000.88
2023-04-17T01:22:09.342Z,100996.50
2023-04-17T01:24:37.314Z,101001.88
2023-04-17T01:27:05.164Z,100999.25
2023-04-17T01:29:32.451Z,100998.41
2023-04-17T01:31:59.549Z,101003.69
2023-04-17T01:34:29.446Z,101004.59
2023-04-17T01:36:56.552Z,101009.91
2023-04-17T01:39:24.229Z,101002.94
2023-04-17T01:41:51.852Z,100997.69
2023-04-17T01:44:19.130Z,101003.06
2023-04-17T01:46:46.248Z,101003.06
2023-04-17T01:49:14.292Z,100998.69
2023-04-17T01:51:41.322Z,101008.47
2023-04-17T01:54:08.650Z,101009.41
2023-04-17T01:56:35.998Z,101008.69
2023-04-17T01:59:03.310Z,101016.66
2023-04-17T02:01:31.281Z,101019.34
2023-04-17T02:03:58.983Z,101013.16
2023-04-17T02:06:27.520Z,101021.94
2023-04-17T02:08:54.915Z,101020.19
2023-04-17T02:11:22.161Z,101023.78
2023-04-17T02:13:49.583Z,101025.50
2023-04-17T02:16:16.788Z,101026.41
2023-04-17T02:18:44.324Z,101025.63
2023-04-17T02:21:18.644Z,101026.50
2023-04-17T02:23:46.243Z,101029.22
2023-04-17T02:26:13.358Z,101029.25
2023-04-17T02:28:45.238Z,101035.44
2023-04-17T02:31:12.841Z,101038.19
2023-04-17T02:33:41.093Z,101039.06
2023-04-17T02:36:08.386Z,101032.88
2023-04-17T02:38:37.806Z,101034.59
2023-04-17T02:41:05.499Z,101041.69
2023-04-17T02:43:33.021Z,101031.13
2023-04-17T02:46:01.567Z,101037.31
2023-04-17T02:48:28.924Z,101037.34
2023-04-17T02:50:56.146Z,101038.22
2023-04-17T02:53:44.359Z,101035.59
2023-04-17T02:56:44.915Z,101032.06
2023-04-17T02:59:16.532Z,101033.84
2023-04-17T03:02:19.079Z,101038.22
2023-04-17T03:05:04.021Z,101036.50
2023-04-17T03:07:36.789Z,101035.66
2023-04-17T03:10:04.468Z,101034.84
2023-04-17T03:16:21.921Z,101045.50
2023-04-17T03:19:11.830Z,101047.34
2023-04-17T03:22:03.263Z,101045.66
2023-04-17T03:24:58.033Z,101045.69
2023-04-17T03:27:43.720Z,101043.94
2023-04-17T03:30:18.787Z,101043.00
2023-04-17T03:33:02.548Z,101046.56
2023-04-17T03:35:57.238Z,101050.00
2023-04-17T03:38:31.451Z,101048.25
2023-04-17T03:41:03.535Z,101056.22
2023-04-17T03:43:30.526Z,101053.56
2023-04-17T03:45:57.846Z,101057.06
2023-04-17T03:48:24.916Z,101053.59
2023-04-17T03:50:52.588Z,101056.31
2023-04-17T03:53:20.031Z,101056.31
2023-04-17T03:55:47.009Z,101058.88
2023-04-17T03:58:14.379Z,101065.94
2023-04-17T04:00:41.513Z,101061.63
2023-04-17T04:03:09.436Z,101056.25
2023-04-17T04:05:36.749Z,101063.38
2023-04-17T04:08:05.339Z,101066.09
2023-04-17T04:10:35.421Z,101058.09
2023-04-17T04:13:03.061Z,101058.06
2023-04-17T04:15:30.136Z,101058.06
2023-04-17T04:18:00.778Z,101061.53
2023-04-17T04:20:28.128Z,101065.03
2023-04-17T04:22:57.885Z,101055.38
2023-04-17T04:25:26.122Z,101060.66
2023-04-17T04:27:53.821Z,101056.25
2023-04-17T04:30:27.040Z,101052.75
2023-04-17T04:32:58.471Z,101054.56
2023-04-17T04:35:26.170Z,101055.50
2023-04-17T04:37:55.093Z,101057.31
2023-04-17T04:40:22.152Z,101060.78
2023-04-17T04:42:51.392Z,101046.47
2023-04-17T04:45:19.269Z,101055.19
2023-04-17T04:47:48.648Z,101054.28
2023-04-17T04:50:19.030Z,101059.53
2023-04-17T04:52:51.768Z,101053.31
2023-04-17T04:55:26.837Z,101055.13
2023-04-17T04:57:54.478Z,101059.53
2023-04-17T05:00:21.813Z,101060.41
2023-04-17T05:02:49.233Z,101048.97
2023-04-17T05:05:16.353Z,101043.66
2023-04-17T05:07:43.754Z,101041.88
2023-04-17T05:10:11.624Z,101044.53
2023-04-17T05:12:48.518Z,101048.09
2023-04-17T05:17:59.952Z,101038.50
2023-04-17T05:20:27.196Z,101031.41
2023-04-17T05:23:10.893Z,101030.59
2023-04-17T05:25:38.876Z,101039.31
2023-04-17T05:28:06.637Z,101035.75
2023-04-17T05:30:34.146Z,101021.78
2023-04-17T05:33:02.046Z,101027.97
2023-04-17T05:35:30.586Z,101024.41
2023-04-17T05:37:58.032Z,101030.38
2023-04-17T05:40:25.462Z,101024.31
2023-04-17T05:42:52.515Z,101032.25
2023-04-17T05:45:20.009Z,101026.91
2023-04-17T05:47:47.106Z,101047.09
2023-04-17T05:50:14.656Z,101039.06
2023-04-17T05:52:41.847Z,101049.56
2023-04-17T05:55:11.448Z,101049.50
2023-04-17T05:57:38.858Z,101048.69
2023-04-17T06:00:11.608Z,101054.81
2023-04-17T06:02:41.443Z,101040.81
2023-04-17T06:05:09.805Z,101046.97
2023-04-17T06:07:38.640Z,101041.56
2023-04-17T06:10:08.883Z,101039.75
2023-04-17T06:12:39.761Z,101040.47
2023-04-17T06:17:50.243Z,101033.03
2023-04-17T06:20:17.874Z,101043.34
2023-04-17T06:22:46.953Z,101042.47
2023-04-17T06:25:19.319Z,101039.78
2023-04-17T06:27:50.981Z,101040.50
2023-04-17T06:30:18.700Z,101042.94
2023-04-17T06:32:45.727Z,101043.84
2023-04-17T06:35:13.342Z,101049.31
2023-04-17T06:37:40.557Z,101047.84
2023-04-17T06:40:08.595Z,101052.41
2023-04-17T06:42:35.871Z,101055.13
2023-04-17T06:45:03.882Z,101051.75
2023-04-17T06:47:31.078Z,101053.66
2023-04-17T06:49:59.968Z,101052.72
2023-04-17T06:52:27.075Z,101058.03
2023-04-17T06:54:55.369Z,101065.16
2023-04-17T06:57:22.631Z,101064.31
2023-04-17T06:59:50.119Z,101066.97
2023-04-17T07:02:18.281Z,101071.28
2023-04-17T07:04:47.317Z,101065.81
2023-04-17T07:07:16.991Z,101073.59
2023-04-17T07:09:45.900Z,101067.38
2023-04-17T07:12:12.895Z,101060.25
2023-04-17T07:14:44.921Z,101068.06
2023-04-17T07:17:12.023Z,101071.63
2023-04-17T07:19:39.460Z,101073.28
2023-04-17T07:22:06.607Z,101068.88
2023-04-17T07:24:35.636Z,101068.06
2023-04-17T07:27:04.133Z,101065.47
2023-04-17T07:29:31.705Z,101076.09
2023-04-17T07:31:59.135Z,101072.47
2023-04-17T07:34:27.139Z,101067.16
2023-04-17T07:36:55.472Z,101074.19
2023-04-17T07:39:23.312Z,101073.19
2023-04-17T07:41:50.667Z,101074.00
2023-04-17T07:44:19.745Z,101067.00
2023-04-17T07:46:55.880Z,101073.94
2023-04-17T07:49:23.454Z,101070.94
2023-04-17T07:51:50.895Z,101068.75
2023-04-17T07:54:19.147Z,101065.03
2023-04-17T07:56:46.753Z,101062.44
2023-04-17T07:59:14.439Z,101059.13
2023-04-17T08:01:41.694Z,101060.03
2023-04-17T08:04:11.326Z,101060.03
2023-04-17T08:06:39.182Z,101057.50
2023-04-17T08:09:12.003Z,101058.28
2023-04-17T08:11:49.772Z,101053.16
2023-04-17T08:14:23.744Z,101040.66
2023-04-17T08:16:50.808Z,101051.25
2023-04-17T08:19:18.244Z,101049.44
2023-04-17T08:21:47.776Z,101054.63
2023-04-17T08:24:16.690Z,101045.53
2023-04-17T08:26:45.788Z,101045.38
2023-04-17T08:29:14.032Z,101037.50
2023-04-17T08:31:42.477Z,101035.72
2023-04-17T08:34:15.041Z,101039.19
2023-04-17T08:36:43.355Z,101029.09
2023-04-17T08:39:12.518Z,101026.09
2023-04-17T08:41:52.128Z,101018.72
2023-04-17T08:44:23.356Z,101021.16
2023-04-17T08:46:51.241Z,101022.72
2023-04-17T08:49:19.016Z,101017.16
2023-04-17T08:51:47.264Z,101017.09
2023-04-17T08:54:30.550Z,101020.56
2023-04-17T08:56:57.861Z,101013.59
2023-04-17T08:59:25.521Z,101007.66
2023-04-17T09:02:05.892Z,101007.69
2023-04-17T09:04:46.111Z,101009.66
2023-04-17T09:07:23.784Z,101006.88
2023-04-17T09:09:53.274Z,101006.03
2023-04-17T09:12:21.458Z,100992.59
2023-04-17T09:14:49.054Z,100996.16
2023-04-17T09:17:17.687Z,101008.28
2023-04-17T09:23:06.386Z,100995.19
2023-04-17T09:25:35.812Z,100993.41
2023-04-17T09:28:16.131Z,100995.31
2023-04-17T09:30:53.002Z,100989.31
2023-04-17T09:33:39.927Z,100991.13
2023-04-17T09:36:22.300Z,100979.81
2023-04-17T09:38:49.843Z,100979.50
2023-04-17T09:41:28.304Z,100983.13
2023-04-17T09:44:05.545Z,100979.66
2023-04-17T09:46:46.192Z,100979.50
2023-04-17T09:49:26.356Z,100971.34
2023-04-17T09:51:55.220Z,100978.25
2023-04-17T09:54:23.495Z,100975.44
2023-04-17T09:56:56.163Z,100977.13
2023-04-17T09:59:25.012Z,100977.00
2023-04-17T10:02:24.655Z,100975.13
2023-04-17T10:04:53.717Z,100973.16
2023-04-17T10:07:21.807Z,100972.34
2023-04-17T10:09:50.617Z,100959.06
2023-04-17T10:12:21.767Z,100961.63
2023-04-17T10:14:52.193Z,100958.84
2023-04-17T10:17:32.610Z,100959.47
2023-04-17T10:20:18.620Z,100953.91
2023-04-17T10:22:57.236Z,100949.97
2023-04-17T10:25:26.392Z,100939.38
2023-04-17T10:27:55.214Z,100943.66
2023-04-17T10:30:24.117Z,100937.50
2023-04-17T10:33:16.563Z,100955.28
2023-04-17T10:35:43.852Z,100965.91
2023-04-17T10:38:12.184Z,100950.91
2023-04-17T10:40:40.454Z,100949.88
2023-04-17T10:43:20.528Z,100949.44
2023-04-17T10:46:04.127Z,100937.44
2023-04-17T10:48:38.438Z,100943.78
2023-04-17T10:51:24.196Z,100948.31
2023-04-17T10:54:05.355Z,100939.75
2023-04-17T10:56:38.826Z,100947.34
2023-04-17T10:59:06.282Z,100946.16
2023-04-17T11:01:48.616Z,100953.13
2023-04-17T11:04:31.037Z,100935.19
2023-04-17T11:06:58.913Z,100946.84
2023-04-17T11:09:28.989Z,100938.66
2023-04-17T11:11:59.532Z,100933.78
2023-04-17T11:14:27.084Z,100923.69
2023-04-17T11:16:54.400Z,100941.63
2023-04-17T11:19:24.763Z,100945.28
2023-04-17T11:21:53.952Z,100947.50
2023-04-17T11:24:27.416Z,100948.31
2023-04-17T11:26:57.022Z,100936.69
2023-04-17T11:29:27.359Z,100964.22
2023-04-17T11:31:57.197Z,100951.38
2023-04-17T11:34:27.392Z,100959.53
2023-04-17T11:36:59.449Z,100977.66
2023-04-17T11:39:29.833Z,100973.00
2023-04-17T11:41:57.377Z,100973.59
2023-04-17T11:44:25.977Z,100968.41
2023-04-17T11:46:56.864Z,100965.44
2023-04-17T11:49:38.286Z,100976.59
2023-04-17T11:52:06.419Z,100961.72
2023-04-17T11:54:38.381Z,100967.06
2023-04-17T11:57:11.811Z,100963.34
2023-04-17T11:59:44.967Z,100976.09
2023-04-17T12:02:12.916Z,100970.84
2023-04-17T12:04:44.803Z,100966.19
2023-04-17T12:07:23.155Z,100969.59
2023-04-17T12:10:02.608Z,100967.19
2023-04-17T12:12:31.200Z,100966.97
2023-04-17T12:14:59.332Z,100964.38
2023-04-17T12:17:27.260Z,100971.28
2023-04-17T12:19:55.005Z,100964.00
2023-04-17T12:22:22.222Z,100965.22
2023-04-17T12:24:49.659Z,100965.84
2023-04-17T12:27:22.508Z,100962.06
2023-04-17T12:29:49.954Z,100956.31
2023-04-17T12:32:17.038Z,100950.69
2023-04-17T12:34:44.561Z,100947.47
2023-04-17T12:37:11.724Z,100951.53
2023-04-17T12:39:39.140Z,100950.94
2023-04-17T12:42:06.188Z,100940.47
2023-04-17T12:44:33.858Z,100942.28
2023-04-17T12:47:02.163Z,100945.38
2023-04-17T12:49:29.679Z,100947.38
2023-04-17T12:51:56.768Z,100941.31
2023-04-17T12:54:24.220Z,100940.34
2023-04-17T12:56:53.467Z,100930.94
2023-04-17T12:59:20.951Z,100932.09
2023-04-17T13:01:47.962Z,100923.50
2023-04-17T13:04:15.926Z,100920.84
2023-04-17T13:06:43.454Z,100914.56
2023-04-17T13:09:11.045Z,100920.84
2023-04-17T13:11:38.389Z,100923.53
2023-04-17T13:14:07.907Z,100923.75
2023-04-17T13:16:36.876Z,100918.00
2023-04-17T13:19:04.562Z,100911.19
2023-04-17T13:21:31.608Z,100911.78
2023-04-17T13:23:58.967Z,100895.78
2023-04-17T13:26:28.190Z,100915.44
2023-04-17T13:28:55.811Z,100913.34
2023-04-17T13:31:24.949Z,100907.34
2023-04-17T13:34:00.698Z,100906.75
2023-04-17T13:36:31.076Z,100910.47
2023-04-17T13:38:58.617Z,100905.91
2023-04-17T13:41:25.849Z,100898.97
2023-04-17T13:43:55.285Z,100901.34
2023-04-17T13:46:22.486Z,100894.63
2023-04-17T13:48:49.887Z,100898.75
2023-04-17T13:51:25.682Z,100891.75
2023-04-17T13:53:54.169Z,100897.00
2023-04-17T13:56:23.603Z,100899.66
2023-04-17T13:58:52.546Z,100895.13
2023-04-17T14:01:20.020Z,100899.34
2023-04-17T14:03:47.897Z,100896.47
2023-04-17T14:06:17.834Z,100890.56
2023-04-17T14:08:47.326Z,100890.66
2023-04-17T14:11:17.341Z,100899.06
2023-04-17T14:13:44.878Z,100890.25
2023-04-17T14:16:12.573Z,100892.25
2023-04-17T14:18:40.014Z,100885.69
2023-04-17T14:21:07.256Z,100876.78
2023-04-17T14:23:34.656Z,100882.91
2023-04-17T14:26:01.810Z,100883.47
2023-04-17T14:28:29.278Z,100876.16
2023-04-17T14:30:56.418Z,100867.19
2023-04-17T14:33:25.129Z,100873.75
2023-04-17T14:38:38.398Z,100866.31
2023-04-17T14:41:05.999Z,100874.19
2023-04-17T14:43:36.069Z,100870.16
2023-04-17T14:46:03.734Z,100863.72
2023-04-17T14:51:16.981Z,100869.66
2023-04-17T14:53:45.788Z,100869.22
2023-04-17T14:56:13.205Z,100856.50
2023-04-17T14:58:40.797Z,100856.72
2023-04-17T15:01:10.616Z,100860.59
2023-04-17T15:03:38.599Z,100861.59
2023-04-17T15:06:06.381Z,100868.88
2023-04-17T15:08:34.015Z,100860.78
2023-04-17T15:11:01.015Z,100857.13
2023-04-17T15:13:29.738Z,100858.13
2023-04-17T15:15:56.709Z,100861.38
2023-04-17T15:18:25.653Z,100858.28
2023-04-17T15:20:52.695Z,100856.56
2023-04-17T15:23:22.964Z,100858.53
2023-04-17T15:25:50.064Z,100856.72
2023-04-17T15:28:21.262Z,100852.31
2023-04-17T15:33:29.751Z,100851.53
2023-04-17T15:35:58.779Z,100850.81
2023-04-17T15:38:26.775Z,100850.97
2023-04-17T15:40:54.528Z,100856.47
2023-04-17T15:43:22.391Z,100853.94
2023-04-17T15:45:49.606Z,100846.47
2023-04-17T15:48:17.264Z,100843.09
2023-04-17T15:50:44.833Z,100854.88
2023-04-17T15:53:13.280Z,100854.31
2023-04-17T15:55:41.391Z,100851.84
2023-04-17T15:58:09.377Z,100852.09
2023-04-17T16:00:36.534Z,100854.13
2023-04-17T16:03:04.223Z,100857.88
2023-04-17T16:05:31.374Z,100856.31
2023-04-17T16:07:58.847Z,100859.91
2023-04-17T16:10:26.185Z,100864.50
2023-04-17T16:13:09.315Z,100868.34
2023-04-17T16:15:37.248Z,100873.84
2023-04-17T16:18:05.817Z,100871.47
2023-04-17T16:20:33.366Z,100875.06
2023-04-17T16:23:00.927Z,100870.00
2023-04-17T16:25:29.757Z,100873.03
2023-04-17T16:27:56.949Z,100875.84
2023-04-17T16:30:24.518Z,100883.97
2023-04-17T16:32:54.653Z,100880.53
2023-04-17T16:35:23.067Z,100879.91
2023-04-17T16:37:50.149Z,100879.19
2023-04-17T16:40:18.212Z,100877.59
2023-04-17T16:42:45.288Z,100885.66
2023-04-17T16:45:12.758Z,100873.34
2023-04-17T16:47:39.904Z,100876.06
2023-04-17T16:50:09.825Z,100874.41
2023-04-17T16:52:39.912Z,100871.97
2023-04-17T16:55:08.127Z,100868.41
2023-04-17T16:57:42.997Z,100877.41
2023-04-17T17:00:11.760Z,100884.50
2023-04-17T17:02:38.914Z,100881.88
2023-04-17T17:05:09.915Z,100874.88
2023-04-17T17:07:36.904Z,100878.53
2023-04-17T17:10:04.635Z,100884.03
2023-04-17T17:12:31.799Z,100885.97
2023-04-17T17:14:59.862Z,100884.41
2023-04-17T17:17:28.269Z,100879.16
2023-04-17T17:19:55.847Z,100875.75
2023-04-17T17:22:23.083Z,100879.41
2023-04-17T17:24:51.498Z,100875.16
2023-04-17T17:27:20.635Z,100880.63
2023-04-17T17:29:48.396Z,100876.28
2023-04-17T17:32:18.968Z,100875.59
2023-04-17T17:34:47.169Z,100876.63
2023-04-17T17:37:14.775Z,100875.09
2023-04-17T17:39:42.896Z,100867.22
2023-04-17T17:42:09.992Z,100870.91
2023-04-17T17:44:38.676Z,100874.63
2023-04-17T17:47:07.653Z,100874.63
2023-04-17T17:49:35.730Z,100863.22
2023-04-17T17:52:02.980Z,100871.22
2023-04-17T17:54:34.571Z,100863.34
2023-04-17T17:57:01.607Z,100870.47
2023-04-17T17:59:29.405Z,100866.09
2023-04-17T18:01:57.526Z,100864.50
2023-04-17T18:04:25.185Z,100863.00
2023-04-17T18:06:52.467Z,100859.59
2023-04-17T18:09:20.016Z,100859.78
2023-04-17T18:11:47.319Z,100863.53
2023-04-17T18:14:14.915Z,100860.97
2023-04-17T18:16:43.107Z,100852.19
2023-04-17T18:19:10.938Z,100854.78
2023-04-17T18:21:38.174Z,100847.81
2023-04-17T18:24:06.281Z,100851.44
2023-04-17T18:26:34.246Z,100848.75
2023-04-17T18:29:02.028Z,100846.19
2023-04-17T18:31:29.376Z,100850.78
2023-04-17T18:34:02.182Z,100834.97
2023-04-17T18:36:29.985Z,100843.19
2023-04-17T18:38:57.749Z,100838.00
2023-04-17T18:41:26.687Z,100831.91
2023-04-17T18:43:54.404Z,100834.56
2023-04-17T18:46:23.098Z,100834.63
2023-04-17T18:48:50.620Z,100834.78
2023-04-17T18:51:17.925Z,100826.91
2023-04-17T18:53:45.510Z,100825.28
2023-04-17T18:56:13.892Z,100824.53
2023-04-17T18:58:41.397Z,100815.84
2023-04-17T19:01:10.563Z,100815.84
2023-04-17T19:03:39.945Z,100812.47
2023-04-17T19:06:07.147Z,100812.69
2023-04-17T19:08:35.610Z,100804.81
2023-04-17T19:11:03.338Z,100805.81
2023-04-17T19:13:31.248Z,100807.66
2023-04-17T19:15:58.667Z,100798.97
2023-04-17T19:18:34.210Z,100796.56
2023-04-17T19:21:02.264Z,100792.28
2023-04-17T19:23:31.295Z,100798.59
2023-04-17T19:25:58.859Z,100796.03
2023-04-17T19:28:28.485Z,100792.53
2023-04-17T19:30:57.843Z,100797.00
2023-04-17T19:33:26.873Z,100794.38
2023-04-17T19:35:54.196Z,100799.66
2023-04-17T19:38:21.673Z,100795.25
2023-04-17T19:41:19.229Z,100790.06
2023-04-17T19:43:49.953Z,100790.16
2023-04-17T19:46:18.531Z,100789.31
2023-04-17T19:48:47.449Z,100786.69
2023-04-17T19:51:15.418Z,100780.72
2023-04-17T19:53:46.170Z,100786.97
2023-04-17T19:56:13.516Z,100787.91
2023-04-17T19:58:41.765Z,100795.94
2023-04-17T20:01:09.036Z,100779.38
2023-04-17T20:03:38.603Z,100782.09
2023-04-17T20:06:06.080Z,100791.91
2023-04-17T20:08:33.579Z,100782.38
2023-04-17T20:11:00.884Z,100774.53
2023-04-17T20:13:28.407Z,100783.41
2023-04-17T20:15:55.825Z,100777.50
2023-04-17T20:18:26.278Z,100781.84
2023-04-17T20:20:53.509Z,100774.84
2023-04-17T20:23:21.460Z,100766.94
2023-04-17T20:25:50.760Z,100773.09
2023-04-17T20:28:18.765Z,100763.31
2023-04-17T20:30:46.037Z,100766.84
2023-04-17T20:33:13.928Z,100767.69
2023-04-17T20:35:42.787Z,100772.81
2023-04-17T20:38:10.329Z,100762.16
2023-04-17T20:40:41.519Z,100757.69
2023-04-17T20:43:11.354Z,100746.22
2023-04-17T20:45:40.408Z,100752.38
2023-04-17T20:48:07.787Z,100751.53
2023-04-17T20:50:34.873Z,100746.22
2023-04-17T20:53:02.213Z,100748.88
2023-04-17T20:55:29.180Z,100748.88
2023-04-17T20:57:56.529Z,100747.06
2023-04-17T21:00:23.593Z,100742.75
2023-04-17T21:02:51.109Z,100743.69
2023-04-17T21:05:19.411Z,100747.22
2023-04-17T21:07:47.200Z,100748.19
2023-04-17T21:10:15.121Z,100748.13
2023-04-17T21:12:42.454Z,100743.75
2023-04-17T21:15:09.830Z,100744.72
2023-04-17T21:17:37.201Z,100736.75
2023-04-17T21:20:08.053Z,100743.84
2023-04-17T21:22:37.150Z,100743.03
2023-04-17T21:25:04.563Z,100735.09
2023-04-17T21:27:31.847Z,100731.81
2023-04-17T21:29:58.860Z,100733.72
2023-04-17T21:32:26.312Z,100737.28
2023-04-17T21:34:53.301Z,100735.53
2023-04-17T21:37:22.604Z,100730.25
2023-04-17T21:39:49.446Z,100736.50
2023-04-17T21:42:17.270Z,100732.00
2023-04-17T21:44:44.320Z,100725.13
2023-04-17T21:47:11.593Z,100716.25
2023-04-17T21:49:38.639Z,100725.13
2023-04-17T21:52:06.060Z,100728.66
2023-04-17T21:54:33.750Z,100728.69
2023-04-17T21:57:02.230Z,100726.97
2023-04-17T21:59:29.358Z,100722.56
2023-04-17T22:01:56.815Z,100727.84
2023-04-17T22:04:23.860Z,100723.47
2023-04-17T22:06:52.169Z,100723.38
2023-04-17T22:09:21.296Z,100730.44
2023-04-17T22:11:48.747Z,100725.22
2023-04-17T22:14:16.927Z,100721.84
2023-04-17T22:16:44.668Z,100731.66
2023-04-17T22:19:11.750Z,100722.88
2023-04-17T22:21:39.149Z,100727.31
2023-04-17T22:24:06.549Z,100730.84
2023-04-17T22:26:34.014Z,100722.88
2023-04-17T22:29:01.058Z,100720.31
2023-04-17T22:31:28.611Z,100721.13
2023-04-17T22:33:55.834Z,100715.81
2023-04-17T22:36:23.341Z,100721.09
2023-04-17T22:38:50.346Z,100718.44
2023-04-17T22:41:17.680Z,100716.69
2023-04-17T22:43:48.454Z,100719.25
2023-04-17T22:46:16.494Z,100711.22
2023-04-17T22:48:46.288Z,100711.22
2023-04-17T22:51:15.276Z,100712.09
2023-04-17T22:53:43.179Z,100707.69
2023-04-17T22:56:12.912Z,100699.88
2023-04-17T22:58:39.954Z,100704.44
2023-04-17T23:01:07.335Z,100712.41
2023-04-17T23:03:35.111Z,100699.28
2023-04-17T23:06:03.222Z,100700.31
2023-04-17T23:08:31.103Z,100695.22
2023-04-17T23:11:00.152Z,100692.66
2023-04-17T23:13:28.246Z,100700.75
2023-04-17T23:15:56.118Z,100698.19
2023-04-17T23:18:23.696Z,100702.88
2023-04-17T23:20:51.216Z,100699.44
2023-04-17T23:23:20.676Z,100708.44
2023-04-17T23:25:48.436Z,100702.38
2023-04-17T23:28:15.603Z,100701.72
2023-04-17T23:30:42.929Z,100700.91
2023-04-17T23:33:10.223Z,100714.22
2023-04-17T23:35:37.545Z,100710.75
2023-04-17T23:38:04.552Z,100703.78
2023-04-17T23:40:32.869Z,100703.88
2023-04-17T23:43:00.183Z,100696.84
2023-04-17T23:45:27.508Z,100697.78
2023-04-17T23:47:54.591Z,100695.31
2023-04-17T23:50:23.243Z,100699.03
2023-04-17T23:52:50.471Z,100699.09
2023-04-17T23:55:17.813Z,100695.72
2023-04-17T23:57:44.796Z,100696.75
